createdAt,value
2023-03-22T00:00:43.700Z,6.50
2023-03-22T00:01:43.685Z,6.20
2023-03-22T00:02:43.680Z,6.60
2023-03-22T00:03:43.624Z,7.50
2023-03-22T00:04:43.608Z,6.80
2023-03-22T00:05:43.586Z,7.60
2023-03-22T00:06:43.635Z,6.80
2023-03-22T00:07:43.593Z,7.00
2023-03-22T00:08:43.616Z,6.00
2023-03-22T00:09:43.543Z,5.70
2023-03-22T00:10:43.543Z,5.90
2023-03-22T00:11:43.540Z,7.00
2023-03-22T00:12:43.591Z,6.00
2023-03-22T00:13:43.553Z,7.10
2023-03-22T00:14:43.496Z,6.00
2023-03-22T00:15:43.507Z,6.40
2023-03-22T00:16:43.474Z,6.90
2023-03-22T00:17:43.456Z,6.50
2023-03-22T00:18:43.522Z,7.10
2023-03-22T00:19:43.429Z,6.20
2023-03-22T00:20:43.421Z,6.10
2023-03-22T00:21:43.417Z,5.60
2023-03-22T00:22:43.463Z,5.10
2023-03-22T00:23:43.402Z,6.60
2023-03-22T00:24:43.396Z,6.40
2023-03-22T00:25:43.382Z,6.30
2023-03-22T00:26:43.368Z,6.00
2023-03-22T00:27:43.417Z,5.70
2023-03-22T00:28:43.342Z,6.50
2023-03-22T00:29:43.330Z,6.00
2023-03-22T00:30:43.373Z,6.20
2023-03-22T00:31:43.361Z,5.80
2023-03-22T00:32:43.314Z,5.30
2023-03-22T00:33:43.367Z,5.50
2023-03-22T00:34:43.289Z,6.60
2023-03-22T00:35:43.399Z,5.50
2023-03-22T00:36:43.259Z,6.40
2023-03-22T00:37:43.260Z,5.10
2023-03-22T00:38:44.478Z,6.20
2023-03-22T00:39:43.219Z,5.90
2023-03-22T00:40:43.274Z,6.00
2023-03-22T00:41:43.260Z,6.00
2023-03-22T00:42:43.248Z,5.80
2023-03-22T00:43:43.200Z,5.70
2023-03-22T00:44:43.172Z,5.40
2023-03-22T00:45:43.201Z,5.90
2023-03-22T00:46:43.177Z,5.80
2023-03-22T00:47:43.253Z,6.20
2023-03-22T00:48:43.181Z,6.60
2023-03-22T00:49:43.184Z,5.30
2023-03-22T00:50:43.186Z,7.30
2023-03-22T00:51:43.107Z,5.80
2023-03-22T00:52:43.169Z,5.60
2023-03-22T00:53:43.837Z,5.60
2023-03-22T00:54:43.082Z,5.10
2023-03-22T00:55:43.116Z,5.10
2023-03-22T00:56:43.052Z,5.10
2023-03-22T00:57:43.113Z,5.40
2023-03-22T00:58:43.047Z,6.60
2023-03-22T00:59:43.053Z,5.60
2023-03-22T01:00:43.033Z,5.80
2023-03-22T01:01:42.990Z,5.60
2023-03-22T01:02:43.059Z,5.60
2023-03-22T01:03:43.203Z,6.10
2023-03-22T01:04:42.976Z,6.40
2023-03-22T01:05:43.004Z,5.90
2023-03-22T01:06:42.937Z,5.40
2023-03-22T01:07:43.012Z,5.40
2023-03-22T01:08:42.930Z,7.00
2023-03-22T01:09:42.920Z,6.80
2023-03-22T01:10:42.895Z,5.70
2023-03-22T01:11:42.950Z,5.80
2023-03-22T01:12:42.926Z,5.60
2023-03-22T01:13:42.872Z,6.30
2023-03-22T01:14:42.869Z,5.50
2023-03-22T01:15:42.852Z,4.90
2023-03-22T01:16:43.031Z,5.60
2023-03-22T01:17:42.876Z,6.70
2023-03-22T01:18:42.822Z,6.70
2023-03-22T01:19:42.811Z,5.40
2023-03-22T01:20:42.816Z,5.60
2023-03-22T01:21:42.786Z,6.10
2023-03-22T01:22:42.834Z,5.20
2023-03-22T01:23:42.771Z,5.70
2023-03-22T01:24:42.754Z,5.30
2023-03-22T01:25:42.750Z,5.00
2023-03-22T01:26:42.743Z,6.40
2023-03-22T01:27:42.722Z,6.60
2023-03-22T01:28:42.782Z,6.30
2023-03-22T01:29:42.695Z,5.60
2023-03-22T01:30:42.963Z,6.80
2023-03-22T01:31:42.685Z,6.30
2023-03-22T01:32:42.662Z,5.70
2023-03-22T01:33:42.712Z,5.60
2023-03-22T01:34:42.646Z,5.70
2023-03-22T01:35:42.637Z,5.70
2023-03-22T01:36:42.636Z,6.10
2023-03-22T01:37:42.639Z,5.90
2023-03-22T01:38:42.666Z,6.40
2023-03-22T01:39:42.614Z,6.00
2023-03-22T01:40:42.902Z,6.30
2023-03-22T01:41:42.574Z,5.20
2023-03-22T01:42:42.565Z,4.90
2023-03-22T01:43:42.617Z,5.80
2023-03-22T01:44:42.560Z,6.40
2023-03-22T01:45:42.527Z,6.20
2023-03-22T01:46:42.548Z,5.10
2023-03-22T01:47:42.537Z,7.40
2023-03-22T01:48:42.606Z,5.70
2023-03-22T01:49:42.499Z,5.80
2023-03-22T01:50:42.564Z,5.50
2023-03-22T01:51:43.753Z,5.20
2023-03-22T01:52:42.474Z,4.90
2023-03-22T01:53:42.515Z,6.60
2023-03-22T01:54:42.455Z,5.90
2023-03-22T01:55:42.451Z,6.00
2023-03-22T01:56:42.425Z,5.30
2023-03-22T01:57:42.410Z,5.40
2023-03-22T01:58:42.471Z,5.00
2023-03-22T01:59:42.402Z,6.40
2023-03-22T02:00:42.440Z,5.70
2023-03-22T02:01:42.463Z,5.50
2023-03-22T02:02:42.392Z,5.70
2023-03-22T02:03:42.352Z,6.80
2023-03-22T02:04:42.355Z,5.80
2023-03-22T02:05:42.389Z,6.00
2023-03-22T02:06:42.309Z,5.80
2023-03-22T02:07:42.318Z,5.50
2023-03-22T02:08:42.307Z,7.40
2023-03-22T02:09:42.313Z,6.10
2023-03-22T02:10:42.329Z,5.20
2023-03-22T02:11:42.320Z,5.40
2023-03-22T02:12:42.261Z,5.60
2023-03-22T02:13:42.252Z,6.40
2023-03-22T02:14:42.265Z,7.00
2023-03-22T02:15:42.295Z,7.00
2023-03-22T02:16:42.216Z,6.10
2023-03-22T02:17:42.236Z,5.50
2023-03-22T02:18:42.235Z,7.80
2023-03-22T02:19:42.181Z,6.50
2023-03-22T02:20:42.234Z,5.50
2023-03-22T02:21:42.203Z,5.70
2023-03-22T02:22:42.177Z,7.20
2023-03-22T02:23:42.165Z,6.80
2023-03-22T02:24:43.974Z,5.90
2023-03-22T02:25:42.190Z,5.60
2023-03-22T02:26:42.097Z,6.00
2023-03-22T02:27:42.092Z,7.40
2023-03-22T02:28:42.153Z,6.30
2023-03-22T02:29:42.099Z,6.50
2023-03-22T02:30:42.125Z,5.90
2023-03-22T02:31:42.068Z,5.80
2023-03-22T02:32:42.050Z,5.40
2023-03-22T02:33:42.105Z,5.10
2023-03-22T02:34:42.062Z,6.10
2023-03-22T02:35:42.043Z,6.70
2023-03-22T02:36:41.980Z,6.40
2023-03-22T02:37:42.000Z,7.00
2023-03-22T02:38:42.045Z,6.00
2023-03-22T02:39:41.978Z,5.70
2023-03-22T02:40:42.091Z,6.10
2023-03-22T02:41:41.944Z,6.10
2023-03-22T02:42:41.939Z,5.20
2023-03-22T02:43:41.988Z,5.40
2023-03-22T02:44:41.918Z,6.80
2023-03-22T02:45:41.914Z,5.60
2023-03-22T02:46:42.018Z,6.70
2023-03-22T02:47:41.931Z,5.90
2023-03-22T02:48:41.954Z,5.90
2023-03-22T02:49:41.856Z,5.30
2023-03-22T02:50:41.889Z,5.90
2023-03-22T02:51:41.843Z,7.40
2023-03-22T02:52:41.857Z,5.80
2023-03-22T02:53:41.912Z,5.70
2023-03-22T02:54:44.146Z,5.50
2023-03-22T02:55:41.900Z,5.60
2023-03-22T02:56:41.804Z,6.10
2023-03-22T02:57:41.788Z,6.80
2023-03-22T02:58:41.842Z,5.20
2023-03-22T02:59:41.848Z,6.00
2023-03-22T03:00:42.225Z,5.40
2023-03-22T03:01:41.774Z,6.80
2023-03-22T03:02:41.727Z,5.70
2023-03-22T03:03:41.712Z,5.20
2023-03-22T03:04:41.785Z,6.70
2023-03-22T03:05:41.711Z,6.20
2023-03-22T03:06:41.691Z,6.50
2023-03-22T03:07:41.702Z,6.00
2023-03-22T03:08:41.721Z,5.70
2023-03-22T03:09:41.733Z,6.10
2023-03-22T03:10:42.142Z,5.00
2023-03-22T03:11:41.637Z,5.60
2023-03-22T03:12:41.637Z,5.20
2023-03-22T03:13:41.616Z,5.80
2023-03-22T03:15:02.677Z,6.50
2023-03-22T03:15:41.611Z,6.40
2023-03-22T03:16:41.674Z,6.10
2023-03-22T03:17:41.565Z,5.60
2023-03-22T03:18:41.561Z,6.70
2023-03-22T03:19:41.613Z,6.60
2023-03-22T03:20:41.802Z,6.10
2023-03-22T03:21:41.536Z,6.60
2023-03-22T03:22:41.525Z,5.80
2023-03-22T03:23:41.530Z,6.00
2023-03-22T03:24:41.560Z,6.60
2023-03-22T03:25:41.531Z,7.50
2023-03-22T03:26:41.553Z,6.30
2023-03-22T03:27:41.480Z,5.80
2023-03-22T03:28:41.469Z,6.00
2023-03-22T03:29:41.435Z,6.00
2023-03-22T03:30:41.554Z,5.30
2023-03-22T03:31:41.517Z,5.50
2023-03-22T03:32:41.405Z,8.10
2023-03-22T03:33:41.397Z,5.90
2023-03-22T03:34:41.394Z,6.00
2023-03-22T03:35:41.479Z,6.30
2023-03-22T03:36:41.429Z,5.70
2023-03-22T03:37:41.369Z,7.80
2023-03-22T03:38:41.347Z,6.90
2023-03-22T03:39:41.366Z,6.70
2023-03-22T03:40:41.593Z,9.30
2023-03-22T03:41:41.386Z,7.90
2023-03-22T03:42:41.327Z,6.70
2023-03-22T03:43:41.300Z,6.80
2023-03-22T03:44:41.346Z,6.10
2023-03-22T03:45:41.344Z,6.60
2023-03-22T03:46:41.274Z,6.10
2023-03-22T03:47:41.331Z,6.80
2023-03-22T03:48:41.268Z,7.70
2023-03-22T03:49:41.243Z,7.40
2023-03-22T03:50:41.611Z,7.60
2023-03-22T03:51:41.285Z,8.00
2023-03-22T03:52:41.206Z,6.90
2023-03-22T03:53:41.206Z,7.10
2023-03-22T03:54:41.201Z,7.30
2023-03-22T03:55:41.175Z,7.80
2023-03-22T03:56:41.249Z,7.10
2023-03-22T03:57:41.154Z,7.00
2023-03-22T03:58:41.151Z,6.80
2023-03-22T03:59:41.137Z,7.50
2023-03-22T04:00:41.383Z,7.10
2023-03-22T04:01:41.116Z,7.40
2023-03-22T04:02:41.244Z,7.60
2023-03-22T04:03:41.201Z,7.40
2023-03-22T04:04:41.178Z,8.60
2023-03-22T04:05:41.076Z,8.20
2023-03-22T04:06:41.067Z,7.80
2023-03-22T04:07:41.123Z,8.10
2023-03-22T04:08:41.168Z,7.40
2023-03-22T04:09:41.046Z,7.50
2023-03-22T04:10:41.307Z,7.40
2023-03-22T04:11:41.012Z,7.80
2023-03-22T04:12:41.007Z,8.50
2023-03-22T04:13:41.074Z,7.70
2023-03-22T04:14:40.997Z,9.00
2023-03-22T04:15:40.971Z,7.60
2023-03-22T04:16:41.170Z,7.90
2023-03-22T04:17:40.956Z,8.30
2023-03-22T04:18:40.936Z,7.30
2023-03-22T04:19:40.976Z,7.40
2023-03-22T04:20:41.228Z,8.20
2023-03-22T04:21:40.905Z,7.60
2023-03-22T04:22:40.964Z,8.10
2023-03-22T04:23:40.893Z,7.80
2023-03-22T04:24:40.873Z,7.90
2023-03-22T04:25:40.865Z,8.20
2023-03-22T04:26:40.887Z,9.40
2023-03-22T04:27:40.907Z,8.40
2023-03-22T04:28:40.830Z,7.40
2023-03-22T04:29:40.928Z,7.30
2023-03-22T04:30:41.054Z,7.30
2023-03-22T04:31:40.809Z,10.00
2023-03-22T04:32:40.855Z,8.10
2023-03-22T04:33:40.786Z,9.50
2023-03-22T04:34:40.769Z,8.60
2023-03-22T04:35:40.789Z,8.70
2023-03-22T04:36:40.749Z,8.80
2023-03-22T04:37:40.801Z,8.50
2023-03-22T04:38:40.728Z,7.20
2023-03-22T04:39:40.756Z,8.30
2023-03-22T04:40:41.029Z,8.40
2023-03-22T04:41:40.688Z,8.40
2023-03-22T04:42:40.689Z,7.30
2023-03-22T04:43:40.733Z,8.30
2023-03-22T04:44:40.669Z,7.80
2023-03-22T04:45:40.655Z,7.90
2023-03-22T04:46:40.668Z,8.40
2023-03-22T04:47:40.790Z,8.50
2023-03-22T04:48:40.632Z,7.60
2023-03-22T04:49:40.614Z,8.70
2023-03-22T04:50:40.892Z,8.00
2023-03-22T04:51:40.593Z,7.50
2023-03-22T04:52:40.650Z,7.20
2023-03-22T04:53:40.570Z,7.70
2023-03-22T04:54:40.563Z,7.20
2023-03-22T04:55:40.553Z,7.10
2023-03-22T04:56:40.547Z,7.20
2023-03-22T04:57:40.597Z,7.70
2023-03-22T04:58:40.520Z,8.00
2023-03-22T04:59:40.506Z,8.00
2023-03-22T05:00:40.758Z,8.70
2023-03-22T05:01:40.517Z,10.50
2023-03-22T05:02:41.437Z,7.70
2023-03-22T05:03:40.541Z,8.20
2023-03-22T05:04:40.470Z,8.00
2023-03-22T05:05:40.445Z,8.70
2023-03-22T05:06:40.436Z,8.20
2023-03-22T05:07:40.494Z,8.90
2023-03-22T05:08:40.413Z,9.10
2023-03-22T05:09:40.415Z,8.80
2023-03-22T05:10:40.835Z,7.10
2023-03-22T05:11:40.382Z,8.90
2023-03-22T05:12:40.388Z,7.10
2023-03-22T05:13:40.438Z,7.10
2023-03-22T05:14:40.421Z,7.20
2023-03-22T05:15:40.364Z,7.30
2023-03-22T05:16:40.343Z,7.80
2023-03-22T05:17:40.342Z,7.60
2023-03-22T05:18:40.393Z,9.50
2023-03-22T05:19:40.304Z,8.80
2023-03-22T05:20:40.674Z,8.60
2023-03-22T05:21:40.306Z,8.80
2023-03-22T05:22:40.758Z,9.00
2023-03-22T05:23:40.245Z,9.80
2023-03-22T05:24:40.243Z,8.00
2023-03-22T05:25:40.297Z,9.20
2023-03-22T05:26:40.251Z,7.50
2023-03-22T05:27:40.304Z,8.70
2023-03-22T05:28:40.205Z,8.80
2023-03-22T05:29:40.276Z,8.40
2023-03-22T05:30:40.354Z,9.00
2023-03-22T05:31:40.219Z,8.20
2023-03-22T05:32:40.164Z,9.50
2023-03-22T05:33:40.155Z,8.30
2023-03-22T05:34:40.197Z,9.00
2023-03-22T05:35:40.239Z,7.90
2023-03-22T05:36:40.197Z,8.90
2023-03-22T05:37:40.124Z,8.40
2023-03-22T05:38:40.148Z,9.10
2023-03-22T05:39:40.151Z,8.10
2023-03-22T05:40:40.401Z,8.40
2023-03-22T05:41:40.132Z,9.30
2023-03-22T05:42:40.250Z,9.30
2023-03-22T05:43:40.079Z,9.50
2023-03-22T05:44:40.114Z,8.60
2023-03-22T05:45:40.046Z,9.80
2023-03-22T05:46:40.059Z,8.30
2023-03-22T05:47:40.029Z,7.80
2023-03-22T05:48:40.063Z,8.80
2023-03-22T05:49:40.057Z,7.70
2023-03-22T05:50:40.168Z,7.40
2023-03-22T05:51:39.988Z,8.70
2023-03-22T05:52:39.972Z,8.10
2023-03-22T05:53:39.948Z,8.80
2023-03-22T05:54:40.026Z,10.70
2023-03-22T05:55:39.932Z,8.80
2023-03-22T05:56:39.921Z,8.40
2023-03-22T05:57:39.919Z,8.00
2023-03-22T05:58:39.900Z,7.90
2023-03-22T05:59:39.889Z,8.50
2023-03-22T06:00:40.396Z,7.60
2023-03-22T06:01:39.926Z,8.00
2023-03-22T06:02:39.948Z,8.70
2023-03-22T06:03:39.884Z,7.70
2023-03-22T06:04:39.944Z,7.60
2023-03-22T06:05:39.834Z,6.20
2023-03-22T06:06:39.818Z,7.90
2023-03-22T06:07:39.875Z,6.90
2023-03-22T06:08:39.804Z,6.90
2023-03-22T06:09:39.867Z,7.10
2023-03-22T06:10:40.176Z,8.70
2023-03-22T06:11:39.766Z,9.00
2023-03-22T06:12:39.775Z,6.90
2023-03-22T06:13:39.735Z,7.90
2023-03-22T06:14:39.732Z,8.60
2023-03-22T06:15:39.784Z,7.40
2023-03-22T06:16:39.858Z,6.80
2023-03-22T06:17:39.746Z,7.30
2023-03-22T06:18:39.686Z,7.50
2023-03-22T06:19:39.688Z,9.10
2023-03-22T06:20:39.974Z,7.70
2023-03-22T06:21:39.667Z,8.20
2023-03-22T06:22:39.739Z,7.80
2023-03-22T06:23:39.650Z,7.60
2023-03-22T06:24:39.645Z,8.70
2023-03-22T06:25:39.622Z,8.00
2023-03-22T06:26:39.618Z,7.30
2023-03-22T06:27:39.673Z,7.20
2023-03-22T06:28:39.586Z,8.50
2023-03-22T06:29:39.587Z,6.70
2023-03-22T06:30:40.043Z,7.50
2023-03-22T06:31:39.557Z,7.10
2023-03-22T06:32:39.651Z,7.30
2023-03-22T06:33:39.545Z,7.60
2023-03-22T06:34:39.530Z,9.30
2023-03-22T06:35:39.579Z,8.70
2023-03-22T06:36:39.498Z,6.60
2023-03-22T06:37:39.565Z,6.90
2023-03-22T06:38:39.474Z,7.70
2023-03-22T06:39:39.480Z,9.90
2023-03-22T06:40:39.906Z,7.10
2023-03-22T06:41:39.442Z,7.90
2023-03-22T06:42:39.476Z,7.70
2023-03-22T06:43:39.423Z,6.70
2023-03-22T06:44:39.436Z,6.30
2023-03-22T06:45:39.497Z,6.60
2023-03-22T06:46:39.383Z,9.10
2023-03-22T06:47:39.451Z,6.30
2023-03-22T06:48:39.360Z,6.30
2023-03-22T06:49:39.353Z,7.40
2023-03-22T06:50:41.320Z,7.40
2023-03-22T06:51:39.335Z,7.60
2023-03-22T06:52:39.366Z,7.60
2023-03-22T06:53:39.314Z,7.00
2023-03-22T06:54:39.682Z,5.70
2023-03-22T06:55:39.307Z,10.30
2023-03-22T06:56:39.296Z,5.70
2023-03-22T06:57:39.324Z,7.20
2023-03-22T06:58:39.244Z,7.00
2023-03-22T06:59:39.258Z,5.20
2023-03-22T07:00:39.645Z,7.90
2023-03-22T07:01:39.253Z,7.80
2023-03-22T07:02:39.267Z,7.10
2023-03-22T07:03:39.209Z,7.00
2023-03-22T07:04:39.283Z,5.20
2023-03-22T07:05:39.254Z,6.20
2023-03-22T07:06:39.173Z,7.00
2023-03-22T07:07:39.165Z,6.10
2023-03-22T07:08:39.158Z,6.50
2023-03-22T07:09:39.186Z,7.10
2023-03-22T07:10:39.450Z,5.70
2023-03-22T07:11:39.102Z,6.70
2023-03-22T07:12:39.131Z,6.50
2023-03-22T07:13:39.181Z,6.00
2023-03-22T07:14:39.077Z,6.30
2023-03-22T07:15:39.087Z,6.90
2023-03-22T07:16:39.116Z,6.80
2023-03-22T07:17:39.198Z,7.20
2023-03-22T07:18:39.087Z,7.80
2023-03-22T07:19:39.492Z,6.70
2023-03-22T07:20:39.320Z,5.60
2023-03-22T07:21:39.080Z,6.00
2023-03-22T07:22:39.021Z,6.50
2023-03-22T07:23:39.008Z,6.40
2023-03-22T07:24:47.400Z,6.60
2023-03-22T07:25:41.257Z,8.70
2023-03-22T07:26:39.041Z,10.00
2023-03-22T07:27:40.409Z,9.20
2023-03-22T07:28:38.950Z,8.90
2023-03-22T07:29:59.973Z,5.50
2023-03-22T07:30:39.294Z,6.40
2023-03-22T07:31:39.003Z,4.70
2023-03-22T07:32:38.937Z,5.20
2023-03-22T07:33:38.877Z,5.00
2023-03-22T07:34:38.873Z,5.00
2023-03-22T07:35:38.945Z,5.50
2023-03-22T07:36:38.852Z,7.60
2023-03-22T07:37:39.264Z,6.60
2023-03-22T07:38:38.817Z,6.60
2023-03-22T07:39:39.774Z,6.20
2023-03-22T07:40:39.763Z,8.30
2023-03-22T07:41:44.513Z,6.20
2023-03-22T07:42:38.803Z,6.80
2023-03-22T07:44:11.398Z,5.50
2023-03-22T07:44:39.764Z,7.20
2023-03-22T07:45:38.996Z,5.20
2023-03-22T07:46:38.781Z,6.80
2023-03-22T07:47:41.354Z,8.40
2023-03-22T07:48:38.806Z,7.00
2023-03-22T07:49:38.728Z,5.10
2023-03-22T07:50:39.044Z,5.60
2023-03-22T07:51:38.700Z,5.20
2023-03-22T07:52:38.685Z,5.20
2023-03-22T07:53:38.751Z,5.00
2023-03-22T07:54:38.726Z,6.20
2023-03-22T07:55:38.657Z,6.20
2023-03-22T07:56:38.645Z,4.90
2023-03-22T07:57:38.740Z,7.30
2023-03-22T07:58:38.688Z,6.80
2023-03-22T07:59:40.180Z,7.30
2023-03-22T08:00:38.915Z,5.20
2023-03-22T08:01:38.680Z,6.70
2023-03-22T08:02:41.684Z,6.30
2023-03-22T08:03:38.580Z,6.90
2023-03-22T08:04:39.700Z,6.60
2023-03-22T08:05:38.874Z,10.60
2023-03-22T08:06:38.530Z,5.60
2023-03-22T08:07:38.519Z,4.80
2023-03-22T08:08:38.502Z,5.90
2023-03-22T08:09:38.532Z,6.70
2023-03-22T08:10:38.936Z,5.90
2023-03-22T08:11:38.484Z,6.00
2023-03-22T08:12:38.803Z,5.00
2023-03-22T08:13:38.483Z,9.20
2023-03-22T08:14:38.447Z,5.70
2023-03-22T08:15:39.039Z,5.20
2023-03-22T08:16:38.705Z,6.20
2023-03-22T08:17:38.451Z,6.20
2023-03-22T08:18:38.402Z,5.30
2023-03-22T08:19:38.421Z,5.20
2023-03-22T08:20:38.744Z,5.40
2023-03-22T08:21:38.376Z,4.70
2023-03-22T08:22:38.433Z,7.60
2023-03-22T08:23:42.132Z,6.30
2023-03-22T08:24:38.341Z,4.20
2023-03-22T08:25:38.415Z,5.00
2023-03-22T08:26:38.321Z,4.90
2023-03-22T08:27:38.302Z,5.70
2023-03-22T08:28:38.311Z,5.90
2023-03-22T08:29:38.382Z,7.00
2023-03-22T08:30:38.673Z,5.80
2023-03-22T08:31:38.344Z,6.90
2023-03-22T08:32:38.245Z,5.40
2023-03-22T08:33:38.278Z,4.20
2023-03-22T08:34:38.244Z,6.50
2023-03-22T08:35:38.600Z,3.90
2023-03-22T08:36:38.224Z,6.90
2023-03-22T08:37:38.271Z,3.90
2023-03-22T08:38:38.199Z,5.70
2023-03-22T08:39:38.188Z,5.00
2023-03-22T08:40:38.214Z,6.10
2023-03-22T08:41:38.352Z,7.20
2023-03-22T08:42:38.263Z,6.80
2023-03-22T08:43:38.200Z,6.40
2023-03-22T08:44:38.134Z,6.10
2023-03-22T08:45:38.747Z,5.70
2023-03-22T08:46:38.109Z,5.70
2023-03-22T08:47:38.175Z,5.50
2023-03-22T08:48:38.179Z,4.50
2023-03-22T08:49:38.080Z,4.40
2023-03-22T08:50:38.062Z,6.00
2023-03-22T08:51:38.067Z,5.50
2023-03-22T08:52:38.116Z,5.00
2023-03-22T08:53:38.065Z,4.90
2023-03-22T08:54:38.083Z,4.30
2023-03-22T08:55:38.307Z,5.90
2023-03-22T08:56:38.050Z,5.30
2023-03-22T08:57:38.976Z,6.80
2023-03-22T08:58:39.117Z,5.60
2023-03-22T08:59:38.056Z,5.20
2023-03-22T09:00:48.268Z,5.40
2023-03-22T09:01:39.065Z,5.50
2023-03-22T09:02:37.985Z,5.40
2023-03-22T09:03:37.999Z,4.10
2023-03-22T09:04:38.061Z,5.20
2023-03-22T09:05:39.223Z,5.00
2023-03-22T09:06:37.884Z,5.10
2023-03-22T09:07:37.962Z,4.70
2023-03-22T09:08:37.879Z,6.70
2023-03-22T09:09:37.896Z,4.10
2023-03-22T09:10:37.870Z,6.00
2023-03-22T09:11:37.845Z,5.00
2023-03-22T09:12:37.975Z,4.80
2023-03-22T09:13:37.871Z,4.50
2023-03-22T09:14:37.810Z,4.20
2023-03-22T09:15:38.240Z,4.60
2023-03-22T09:16:37.924Z,4.30
2023-03-22T09:17:37.801Z,6.50
2023-03-22T09:18:37.829Z,5.20
2023-03-22T09:19:37.772Z,5.40
2023-03-22T09:20:38.073Z,6.40
2023-03-22T09:21:37.788Z,5.70
2023-03-22T09:22:37.735Z,5.90
2023-03-22T09:23:37.964Z,5.90
2023-03-22T09:24:37.786Z,6.50
2023-03-22T09:25:38.107Z,5.50
2023-03-22T09:26:37.755Z,5.20
2023-03-22T09:27:37.873Z,5.40
2023-03-22T09:28:37.808Z,5.10
2023-03-22T09:29:37.923Z,4.00
2023-03-22T09:30:38.095Z,5.30
2023-03-22T09:31:37.834Z,6.60
2023-03-22T09:32:37.622Z,7.60
2023-03-22T09:33:38.012Z,5.50
2023-03-22T09:34:38.034Z,7.10
2023-03-22T09:35:37.892Z,7.30
2023-03-22T09:36:37.602Z,6.90
2023-03-22T09:37:37.622Z,6.40
2023-03-22T09:38:37.559Z,5.00
2023-03-22T09:39:37.546Z,6.10
2023-03-22T09:40:37.633Z,4.30
2023-03-22T09:41:37.561Z,5.20
2023-03-22T09:42:37.510Z,4.70
2023-03-22T09:43:37.513Z,6.30
2023-03-22T09:44:37.504Z,6.70
2023-03-22T09:45:37.629Z,6.90
2023-03-22T09:46:37.589Z,7.40
2023-03-22T09:47:44.871Z,7.00
2023-03-22T09:48:38.519Z,5.20
2023-03-22T09:49:52.350Z,6.40
2023-03-22T09:50:39.110Z,5.00
2023-03-22T09:51:37.495Z,11.90
2023-03-22T09:52:37.435Z,6.00
2023-03-22T09:53:37.387Z,7.40
2023-03-22T09:54:37.404Z,6.30
2023-03-22T09:55:37.706Z,6.00
2023-03-22T09:56:37.452Z,6.90
2023-03-22T09:57:37.390Z,7.00
2023-03-22T09:58:37.464Z,7.10
2023-03-22T09:59:37.334Z,6.60
2023-03-22T10:00:37.440Z,6.00
2023-03-22T10:01:37.825Z,7.30
2023-03-22T10:02:37.430Z,5.40
2023-03-22T10:03:37.368Z,5.30
2023-03-22T10:04:37.382Z,6.30
2023-03-22T10:05:37.270Z,7.40
2023-03-22T10:06:37.250Z,5.80
2023-03-22T10:07:37.256Z,5.60
2023-03-22T10:08:37.261Z,6.70
2023-03-22T10:09:37.299Z,7.10
2023-03-22T10:10:37.220Z,6.00
2023-03-22T10:11:37.238Z,5.10
2023-03-22T10:12:37.212Z,6.10
2023-03-22T10:13:37.180Z,5.40
2023-03-22T10:14:37.221Z,4.80
2023-03-22T10:15:37.224Z,5.50
2023-03-22T10:16:37.162Z,4.60
2023-03-22T10:17:37.122Z,5.00
2023-03-22T10:18:37.144Z,4.10
2023-03-22T10:19:37.240Z,5.30
2023-03-22T10:20:37.127Z,3.90
2023-03-22T10:21:37.091Z,3.70
2023-03-22T10:22:37.111Z,3.30
2023-03-22T10:23:37.079Z,4.30
2023-03-22T10:24:37.070Z,3.10
2023-03-22T10:25:37.121Z,3.90
2023-03-22T10:26:37.073Z,3.40
2023-03-22T10:27:37.047Z,5.50
2023-03-22T10:28:37.022Z,5.50
2023-03-22T10:29:37.064Z,5.10
2023-03-22T10:30:37.086Z,6.30
2023-03-22T10:31:37.080Z,5.50
2023-03-22T10:32:45.200Z,4.80
2023-03-22T10:33:38.060Z,4.00
2023-03-22T10:34:36.960Z,4.80
2023-03-22T10:35:37.200Z,4.90
2023-03-22T10:36:37.017Z,4.70
2023-03-22T10:37:36.959Z,4.60
2023-03-22T10:38:36.980Z,3.80
2023-03-22T10:39:38.657Z,4.50
2023-03-22T10:40:36.911Z,3.70
2023-03-22T10:41:36.920Z,4.50
2023-03-22T10:42:36.892Z,4.90
2023-03-22T10:43:36.906Z,4.10
2023-03-22T10:44:36.917Z,4.50
2023-03-22T10:45:36.851Z,5.10
2023-03-22T10:46:36.892Z,2.80
2023-03-22T10:47:36.889Z,6.00
2023-03-22T10:48:40.850Z,3.30
2023-03-22T10:49:36.813Z,13.40
2023-03-22T10:50:36.804Z,3.50
2023-03-22T10:51:36.819Z,3.80
2023-03-22T10:52:36.839Z,5.10
2023-03-22T10:53:36.764Z,3.70
2023-03-22T10:54:36.749Z,4.10
2023-03-22T10:55:36.830Z,3.70
2023-03-22T10:56:36.729Z,5.70
2023-03-22T10:57:36.833Z,7.10
2023-03-22T10:58:36.697Z,4.40
2023-03-22T10:59:36.709Z,4.00
2023-03-22T11:00:40.596Z,5.20
2023-03-22T11:01:37.821Z,4.20
2023-03-22T11:02:36.886Z,4.00
2023-03-22T11:03:36.661Z,3.40
2023-03-22T11:04:36.654Z,2.40
2023-03-22T11:05:36.687Z,4.80
2023-03-22T11:06:36.620Z,5.10
2023-03-22T11:07:36.628Z,7.20
2023-03-22T11:08:36.621Z,4.60
2023-03-22T11:09:36.598Z,4.60
2023-03-22T11:10:36.701Z,4.80
2023-03-22T11:11:36.656Z,4.30
2023-03-22T11:12:38.954Z,4.00
2023-03-22T11:13:36.545Z,3.90
2023-03-22T11:14:36.580Z,3.80
2023-03-22T11:15:36.527Z,5.60
2023-03-22T11:16:36.558Z,5.40
2023-03-22T11:17:36.583Z,6.70
2023-03-22T11:18:36.613Z,5.00
2023-03-22T11:19:36.486Z,4.70
2023-03-22T11:20:36.501Z,4.80
2023-03-22T11:21:36.466Z,4.30
2023-03-22T11:22:36.460Z,4.90
2023-03-22T11:23:36.508Z,4.30
2023-03-22T11:24:36.441Z,4.30
2023-03-22T11:25:36.420Z,3.60
2023-03-22T11:26:39.218Z,4.00
2023-03-22T11:27:37.629Z,5.30
2023-03-22T11:28:36.444Z,6.20
2023-03-22T11:29:36.743Z,4.50
2023-03-22T11:30:36.363Z,5.80
2023-03-22T11:31:36.566Z,3.30
2023-03-22T11:32:36.393Z,5.60
2023-03-22T11:33:57.394Z,2.50
2023-03-22T11:34:36.337Z,4.20
2023-03-22T11:35:36.403Z,3.00
2023-03-22T11:36:36.292Z,4.40
2023-03-22T11:37:36.290Z,5.80
2023-03-22T11:38:36.372Z,4.40
2023-03-22T11:39:36.298Z,4.70
2023-03-22T11:40:36.262Z,4.90
2023-03-22T11:41:36.263Z,4.80
2023-03-22T11:42:36.313Z,5.10
2023-03-22T11:43:36.310Z,3.40
2023-03-22T11:44:36.229Z,4.90
2023-03-22T11:45:36.219Z,4.20
2023-03-22T11:46:36.359Z,6.10
2023-03-22T11:47:36.222Z,5.50
2023-03-22T11:48:37.611Z,3.50
2023-03-22T11:49:36.182Z,4.20
2023-03-22T11:50:36.175Z,3.70
2023-03-22T11:51:36.223Z,5.40
2023-03-22T11:52:36.133Z,4.80
2023-03-22T11:53:36.149Z,4.50
2023-03-22T11:54:36.141Z,3.60
2023-03-22T11:55:36.112Z,6.00
2023-03-22T11:56:36.148Z,5.30
2023-03-22T11:57:36.085Z,7.40
2023-03-22T11:58:36.388Z,4.00
2023-03-22T11:59:36.148Z,4.80
2023-03-22T12:00:36.104Z,3.40
2023-03-22T12:01:37.452Z,7.10
2023-03-22T12:02:36.346Z,5.60
2023-03-22T12:03:38.946Z,4.50
2023-03-22T12:04:36.079Z,3.20
2023-03-22T12:05:36.559Z,5.10
2023-03-22T12:06:36.023Z,4.90
2023-03-22T12:07:36.166Z,7.60
2023-03-22T12:08:36.091Z,5.90
2023-03-22T12:09:36.773Z,5.10
2023-03-22T12:10:36.012Z,7.00
2023-03-22T12:11:35.934Z,5.40
2023-03-22T12:12:35.924Z,3.20
2023-03-22T12:13:35.997Z,4.00
2023-03-22T12:14:35.915Z,3.40
2023-03-22T12:15:35.934Z,5.20
2023-03-22T12:16:35.955Z,4.90
2023-03-22T12:17:35.894Z,5.90
2023-03-22T12:18:35.869Z,3.90
2023-03-22T12:19:35.907Z,3.00
2023-03-22T12:20:35.844Z,4.80
2023-03-22T12:21:35.836Z,4.20
2023-03-22T12:22:35.870Z,4.90
2023-03-22T12:23:35.881Z,5.60
2023-03-22T12:24:35.815Z,5.50
2023-03-22T12:25:36.121Z,4.40
2023-03-22T12:26:36.378Z,4.60
2023-03-22T12:27:35.779Z,5.80
2023-03-22T12:28:35.820Z,5.50
2023-03-22T12:29:35.756Z,4.10
2023-03-22T12:30:35.824Z,5.20
2023-03-22T12:31:35.797Z,5.90
2023-03-22T12:32:35.778Z,3.30
2023-03-22T12:33:35.697Z,4.20
2023-03-22T12:34:35.783Z,3.40
2023-03-22T12:35:35.783Z,3.10
2023-03-22T12:36:35.737Z,5.50
2023-03-22T12:37:35.681Z,4.70
2023-03-22T12:38:35.936Z,4.90
2023-03-22T12:39:35.700Z,4.90
2023-03-22T12:40:35.633Z,3.70
2023-03-22T12:41:35.629Z,3.10
2023-03-22T12:42:40.682Z,4.50
2023-03-22T12:43:36.620Z,4.10
2023-03-22T12:44:35.587Z,4.70
2023-03-22T12:45:35.628Z,3.90
2023-03-22T12:46:35.916Z,4.50
2023-03-22T12:47:35.610Z,5.90
2023-03-22T12:48:35.601Z,4.10
2023-03-22T12:49:35.543Z,5.00
2023-03-22T12:50:35.607Z,3.50
2023-03-22T12:51:35.523Z,4.30
2023-03-22T12:52:44.742Z,3.70
2023-03-22T12:53:36.490Z,4.50
2023-03-22T12:54:35.524Z,4.00
2023-03-22T12:55:35.587Z,3.40
2023-03-22T12:56:35.460Z,4.70
2023-03-22T12:57:36.148Z,3.80
2023-03-22T12:58:35.519Z,6.10
2023-03-22T12:59:35.422Z,4.50
2023-03-22T13:00:35.440Z,4.70
2023-03-22T13:01:35.473Z,4.10
2023-03-22T13:02:35.555Z,5.80
2023-03-22T13:03:35.551Z,4.50
2023-03-22T13:04:35.374Z,4.40
2023-03-22T13:05:35.391Z,6.40
2023-03-22T13:06:35.383Z,5.60
2023-03-22T13:07:35.345Z,5.80
2023-03-22T13:08:35.462Z,4.10
2023-03-22T13:09:36.306Z,4.30
2023-03-22T13:10:35.319Z,5.40
2023-03-22T13:11:35.332Z,4.50
2023-03-22T13:12:35.323Z,4.00
2023-03-22T13:13:35.360Z,4.90
2023-03-22T13:14:35.342Z,4.90
2023-03-22T13:15:41.755Z,4.80
2023-03-22T13:16:36.290Z,4.30
2023-03-22T13:17:35.305Z,4.10
2023-03-22T13:18:35.342Z,4.40